sensor_id;sensor_type;location;lat;lon;timestamp;temperature;humidity
19340;HTU21D;9804;52.350;6.684;2024-01-15T00:01:11;3.93;-6.00
19340;HTU21D;9804;52.350;6.684;2024-01-15T00:03:37;3.98;-6.00
19340;HTU21D;9804;52.350;6.684;2024-01-15T00:06:03;4.04;-6.00
19340;HTU21D;9804;52.350;6.684;2024-01-15T00:08:28;3.98;-6.00
19340;HTU21D;9804;52.350;6.684;2024-01-15T00:10:53;3.83;-6.00
19340;HTU21D;9804;52.350;6.684;2024-01-15T00:13:19;3.99;-6.00
19340;HTU21D;9804;52.350;6.684;2024-01-15T00:15:44;3.89;-6.00
19340;HTU21D;9804;52.350;6.684;2024-01-15T00:18:10;3.80;-6.00
19340;HTU21D;9804;52.350;6.684;2024-01-15T00:20:35;3.82;-6.00
19340;HTU21D;9804;52.350;6.684;2024-01-15T00:23:00;3.65;-6.00
19340;HTU21D;9804;52.350;6.684;2024-01-15T00:25:26;3.84;-6.00
19340;HTU21D;9804;52.350;6.684;2024-01-15T00:27:51;3.73;-6.00
19340;HTU21D;9804;52.350;6.684;2024-01-15T00:30:17;3.76;-6.00
19340;HTU21D;9804;52.350;6.684;2024-01-15T00:32:42;3.63;-6.00
19340;HTU21D;9804;52.350;6.684;2024-01-15T00:35:08;3.84;-6.00
19340;HTU21D;9804;52.350;6.684;2024-01-15T00:37:33;3.75;-6.00
19340;HTU21D;9804;52.350;6.684;2024-01-15T00:39:59;3.82;-6.00
19340;HTU21D;9804;52.350;6.684;2024-01-15T00:42:24;3.63;-6.00
19340;HTU21D;9804;52.350;6.684;2024-01-15T00:44:50;3.60;-6.00
19340;HTU21D;9804;52.350;6.684;2024-01-15T00:47:15;3.60;-6.00
19340;HTU21D;9804;52.350;6.684;2024-01-15T00:49:40;3.60;-6.00
19340;HTU21D;9804;52.350;6.684;2024-01-15T00:52:06;3.58;-6.00
19340;HTU21D;9804;52.350;6.684;2024-01-15T00:54:31;3.75;-6.00
19340;HTU21D;9804;52.350;6.684;2024-01-15T00:56:57;3.67;-6.00
19340;HTU21D;9804;52.350;6.684;2024-01-15T00:59:22;3.58;-6.00
19340;HTU21D;9804;52.350;6.684;2024-01-15T01:01:47;3.57;-6.00
19340;HTU21D;9804;52.350;6.684;2024-01-15T01:04:13;3.72;-6.00
19340;HTU21D;9804;52.350;6.684;2024-01-15T01:06:39;3.70;-6.00
19340;HTU21D;9804;52.350;6.684;2024-01-15T01:09:05;3.70;-6.00
19340;HTU21D;9804;52.350;6.684;2024-01-15T01:11:30;3.74;-6.00
19340;HTU21D;9804;52.350;6.684;2024-01-15T01:13:56;3.74;-6.00
19340;HTU21D;9804;52.350;6.684;2024-01-15T01:16:22;3.75;-6.00
19340;HTU21D;9804;52.350;6.684;2024-01-15T01:18:47;3.82;-6.00
19340;HTU21D;9804;52.350;6.684;2024-01-15T01:21:13;3.78;-6.00
19340;HTU21D;9804;52.350;6.684;2024-01-15T01:23:38;3.61;-6.00
19340;HTU21D;9804;52.350;6.684;2024-01-15T01:26:04;3.59;-6.00
19340;HTU21D;9804;52.350;6.684;2024-01-15T01:28:29;3.75;-6.00
19340;HTU21D;9804;52.350;6.684;2024-01-15T01:30:54;3.78;-6.00
19340;HTU21D;9804;52.350;6.684;2024-01-15T01:33:20;3.64;-6.00
19340;HTU21D;9804;52.350;6.684;2024-01-15T01:35:45;3.79;-6.00
19340;HTU21D;9804;52.350;6.684;2024-01-15T01:38:12;3.75;-6.00
19340;HTU21D;9804;52.350;6.684;2024-01-15T01:40:37;3.68;-6.00
19340;HTU21D;9804;52.350;6.684;2024-01-15T01:43:05;3.57;-6.00
19340;HTU21D;9804;52.350;6.684;2024-01-15T01:45:30;3.59;-6.00
19340;HTU21D;9804;52.350;6.684;2024-01-15T01:47:56;3.44;-6.00
19340;HTU21D;9804;52.350;6.684;2024-01-15T01:50:22;3.52;-6.00
19340;HTU21D;9804;52.350;6.684;2024-01-15T01:52:48;3.57;-6.00
19340;HTU21D;9804;52.350;6.684;2024-01-15T01:55:14;3.60;-6.00
19340;HTU21D;9804;52.350;6.684;2024-01-15T01:57:40;3.53;-6.00
19340;HTU21D;9804;52.350;6.684;2024-01-15T02:00:07;3.58;-6.00
19340;HTU21D;9804;52.350;6.684;2024-01-15T02:02:33;3.64;-6.00
19340;HTU21D;9804;52.350;6.684;2024-01-15T02:04:59;3.71;-6.00
19340;HTU21D;9804;52.350;6.684;2024-01-15T02:07:24;3.59;-6.00
19340;HTU21D;9804;52.350;6.684;2024-01-15T02:09:50;3.82;-6.00
19340;HTU21D;9804;52.350;6.684;2024-01-15T02:12:16;3.78;-6.00
19340;HTU21D;9804;52.350;6.684;2024-01-15T02:14:41;3.77;-6.00
19340;HTU21D;9804;52.350;6.684;2024-01-15T02:17:07;3.84;-6.00
19340;HTU21D;9804;52.350;6.684;2024-01-15T02:19:32;3.79;-6.00
19340;HTU21D;9804;52.350;6.684;2024-01-15T02:21:58;3.76;-6.00
19340;HTU21D;9804;52.350;6.684;2024-01-15T02:24:23;3.62;-6.00
19340;HTU21D;9804;52.350;6.684;2024-01-15T02:26:49;3.69;-6.00
19340;HTU21D;9804;52.350;6.684;2024-01-15T02:29:15;3.69;-6.00
19340;HTU21D;9804;52.350;6.684;2024-01-15T02:31:40;3.69;-6.00
19340;HTU21D;9804;52.350;6.684;2024-01-15T02:34:06;3.74;-6.00
19340;HTU21D;9804;52.350;6.684;2024-01-15T02:36:31;3.89;-6.00
19340;HTU21D;9804;52.350;6.684;2024-01-15T02:38:57;3.99;-6.00
19340;HTU21D;9804;52.350;6.684;2024-01-15T02:41:22;3.80;-6.00
19340;HTU21D;9804;52.350;6.684;2024-01-15T02:43:48;3.86;-6.00
19340;HTU21D;9804;52.350;6.684;2024-01-15T02:46:13;3.85;-6.00
19340;HTU21D;9804;52.350;6.684;2024-01-15T02:48:39;3.87;-6.00
19340;HTU21D;9804;52.350;6.684;2024-01-15T02:51:04;3.80;-6.00
19340;HTU21D;9804;52.350;6.684;2024-01-15T02:53:29;3.99;-6.00
19340;HTU21D;9804;52.350;6.684;2024-01-15T02:55:55;3.89;-6.00
19340;HTU21D;9804;52.350;6.684;2024-01-15T02:58:21;3.97;-6.00
19340;HTU21D;9804;52.350;6.684;2024-01-15T03:00:46;3.94;-6.00
19340;HTU21D;9804;52.350;6.684;2024-01-15T03:03:12;4.05;-6.00
19340;HTU21D;9804;52.350;6.684;2024-01-15T03:05:38;3.91;-6.00
19340;HTU21D;9804;52.350;6.684;2024-01-15T03:08:04;3.92;-6.00
19340;HTU21D;9804;52.350;6.684;2024-01-15T03:10:29;3.80;-6.00
19340;HTU21D;9804;52.350;6.684;2024-01-15T03:12:54;3.83;-6.00
19340;HTU21D;9804;52.350;6.684;2024-01-15T03:15:20;3.85;-6.00
19340;HTU21D;9804;52.350;6.684;2024-01-15T03:17:45;4.02;-6.00
19340;HTU21D;9804;52.350;6.684;2024-01-15T03:20:11;3.95;-6.00
19340;HTU21D;9804;52.350;6.684;2024-01-15T03:22:36;4.09;-6.00
19340;HTU21D;9804;52.350;6.684;2024-01-15T03:25:03;4.07;-6.00
19340;HTU21D;9804;52.350;6.684;2024-01-15T03:27:29;4.10;-6.00
19340;HTU21D;9804;52.350;6.684;2024-01-15T03:29:54;4.19;-6.00
19340;HTU21D;9804;52.350;6.684;2024-01-15T03:32:19;4.14;-6.00
19340;HTU21D;9804;52.350;6.684;2024-01-15T03:34:45;4.10;-6.00
19340;HTU21D;9804;52.350;6.684;2024-01-15T03:37:13;4.01;-6.00
19340;HTU21D;9804;52.350;6.684;2024-01-15T03:39:38;4.07;-6.00
19340;HTU21D;9804;52.350;6.684;2024-01-15T03:42:04;3.93;-6.00
19340;HTU21D;9804;52.350;6.684;2024-01-15T03:44:29;3.94;-6.00
19340;HTU21D;9804;52.350;6.684;2024-01-15T03:46:55;4.07;-6.00
19340;HTU21D;9804;52.350;6.684;2024-01-15T03:49:20;3.99;-6.00
19340;HTU21D;9804;52.350;6.684;2024-01-15T03:51:46;3.94;-6.00
19340;HTU21D;9804;52.350;6.684;2024-01-15T03:54:11;4.02;-6.00
19340;HTU21D;9804;52.350;6.684;2024-01-15T03:56:36;3.97;-6.00
19340;HTU21D;9804;52.350;6.684;2024-01-15T03:59:02;3.87;-6.00
19340;HTU21D;9804;52.350;6.684;2024-01-15T04:01:28;3.92;-6.00
19340;HTU21D;9804;52.350;6.684;2024-01-15T04:03:54;3.98;-6.00
19340;HTU21D;9804;52.350;6.684;2024-01-15T04:06:19;3.93;-6.00
19340;HTU21D;9804;52.350;6.684;2024-01-15T04:08:45;3.90;-6.00
19340;HTU21D;9804;52.350;6.684;2024-01-15T04:11:10;3.71;-6.00
19340;HTU21D;9804;52.350;6.684;2024-01-15T04:13:36;3.73;-6.00
19340;HTU21D;9804;52.350;6.684;2024-01-15T04:16:01;4.01;-6.00
19340;HTU21D;9804;52.350;6.684;2024-01-15T04:18:26;3.90;-6.00
19340;HTU21D;9804;52.350;6.684;2024-01-15T04:20:52;3.99;-6.00
19340;HTU21D;9804;52.350;6.684;2024-01-15T04:23:17;3.89;-6.00
19340;HTU21D;9804;52.350;6.684;2024-01-15T04:25:43;3.85;-6.00
19340;HTU21D;9804;52.350;6.684;2024-01-15T04:28:09;3.71;-6.00
19340;HTU21D;9804;52.350;6.684;2024-01-15T04:30:35;3.76;-6.00
19340;HTU21D;9804;52.350;6.684;2024-01-15T04:33:00;3.71;-6.00
19340;HTU21D;9804;52.350;6.684;2024-01-15T04:35:26;3.74;-6.00
19340;HTU21D;9804;52.350;6.684;2024-01-15T04:37:52;3.79;-6.00
19340;HTU21D;9804;52.350;6.684;2024-01-15T04:40:17;3.73;-6.00
19340;HTU21D;9804;52.350;6.684;2024-01-15T04:42:42;3.79;-6.00
19340;HTU21D;9804;52.350;6.684;2024-01-15T04:45:08;3.74;-6.00
19340;HTU21D;9804;52.350;6.684;2024-01-15T04:47:34;3.80;-6.00
19340;HTU21D;9804;52.350;6.684;2024-01-15T04:49:59;3.78;-6.00
19340;HTU21D;9804;52.350;6.684;2024-01-15T04:52:25;3.84;-6.00
19340;HTU21D;9804;52.350;6.684;2024-01-15T04:54:50;3.72;-6.00
19340;HTU21D;9804;52.350;6.684;2024-01-15T04:57:16;3.83;-6.00
19340;HTU21D;9804;52.350;6.684;2024-01-15T04:59:41;3.61;-6.00
19340;HTU21D;9804;52.350;6.684;2024-01-15T05:02:06;3.80;-6.00
19340;HTU21D;9804;52.350;6.684;2024-01-15T05:04:32;3.71;-6.00
19340;HTU21D;9804;52.350;6.684;2024-01-15T05:06:58;3.78;-6.00
19340;HTU21D;9804;52.350;6.684;2024-01-15T05:09:23;3.65;-6.00
19340;HTU21D;9804;52.350;6.684;2024-01-15T05:11:49;3.75;-6.00
19340;HTU21D;9804;52.350;6.684;2024-01-15T05:14:14;3.86;-6.00
19340;HTU21D;9804;52.350;6.684;2024-01-15T05:16:46;3.88;-6.00
19340;HTU21D;9804;52.350;6.684;2024-01-15T05:19:11;3.79;-6.00
19340;HTU21D;9804;52.350;6.684;2024-01-15T05:21:37;3.64;1.80
19340;HTU21D;9804;52.350;6.684;2024-01-15T05:24:02;3.74;-6.00
19340;HTU21D;9804;52.350;6.684;2024-01-15T05:26:28;3.80;-6.00
19340;HTU21D;9804;52.350;6.684;2024-01-15T05:28:53;3.80;-6.00
19340;HTU21D;9804;52.350;6.684;2024-01-15T05:31:18;3.67;-0.93
19340;HTU21D;9804;52.350;6.684;2024-01-15T05:33:44;3.71;-6.00
19340;HTU21D;9804;52.350;6.684;2024-01-15T05:36:09;3.59;-6.00
19340;HTU21D;9804;52.350;6.684;2024-01-15T05:38:35;3.80;-6.00
19340;HTU21D;9804;52.350;6.684;2024-01-15T05:41:00;3.83;-6.00
19340;HTU21D;9804;52.350;6.684;2024-01-15T05:43:25;3.83;-6.00
19340;HTU21D;9804;52.350;6.684;2024-01-15T05:45:51;3.78;-6.00
19340;HTU21D;9804;52.350;6.684;2024-01-15T05:48:16;3.74;-4.16
19340;HTU21D;9804;52.350;6.684;2024-01-15T05:50:42;3.56;8.21
19340;HTU21D;9804;52.350;6.684;2024-01-15T05:53:07;3.74;21.31
19340;HTU21D;9804;52.350;6.684;2024-01-15T05:55:33;3.77;-6.00
19340;HTU21D;9804;52.350;6.684;2024-01-15T05:57:58;3.55;14.07
19340;HTU21D;9804;52.350;6.684;2024-01-15T06:00:24;3.83;22.29
19340;HTU21D;9804;52.350;6.684;2024-01-15T06:02:49;3.64;0.71
19340;HTU21D;9804;52.350;6.684;2024-01-15T06:05:14;3.68;-1.36
19340;HTU21D;9804;52.350;6.684;2024-01-15T06:07:41;3.79;-4.43
19340;HTU21D;9804;52.350;6.684;2024-01-15T06:10:07;3.67;-1.86
19340;HTU21D;9804;52.350;6.684;2024-01-15T06:12:32;3.67;4.89
19340;HTU21D;9804;52.350;6.684;2024-01-15T06:14:59;3.76;4.19
19340;HTU21D;9804;52.350;6.684;2024-01-15T06:17:24;3.80;-6.00
19340;HTU21D;9804;52.350;6.684;2024-01-15T06:19:49;3.85;1.93
19340;HTU21D;9804;52.350;6.684;2024-01-15T06:22:15;3.74;11.61
19340;HTU21D;9804;52.350;6.684;2024-01-15T06:24:41;3.80;-3.02
19340;HTU21D;9804;52.350;6.684;2024-01-15T06:27:06;3.70;12.74
19340;HTU21D;9804;52.350;6.684;2024-01-15T06:29:32;3.70;0.76
19340;HTU21D;9804;52.350;6.684;2024-01-15T06:31:57;3.86;-6.00
19340;HTU21D;9804;52.350;6.684;2024-01-15T06:34:23;3.71;-4.34
19340;HTU21D;9804;52.350;6.684;2024-01-15T06:36:48;3.69;-6.00
19340;HTU21D;9804;52.350;6.684;2024-01-15T06:39:14;3.40;7.85
19340;HTU21D;9804;52.350;6.684;2024-01-15T06:41:39;3.63;44.51
19340;HTU21D;9804;52.350;6.684;2024-01-15T06:44:09;3.47;38.28
19340;HTU21D;9804;52.350;6.684;2024-01-15T06:46:36;3.58;36.63
19340;HTU21D;9804;52.350;6.684;2024-01-15T06:49:01;3.84;19.49
19340;HTU21D;9804;52.350;6.684;2024-01-15T06:51:26;3.72;-6.00
19340;HTU21D;9804;52.350;6.684;2024-01-15T06:53:52;3.74;-6.00
19340;HTU21D;9804;52.350;6.684;2024-01-15T06:56:17;3.62;-2.57
19340;HTU21D;9804;52.350;6.684;2024-01-15T06:58:43;3.45;9.08
19340;HTU21D;9804;52.350;6.684;2024-01-15T07:01:08;3.57;17.98
19340;HTU21D;9804;52.350;6.684;2024-01-15T07:03:34;3.56;13.53
19340;HTU21D;9804;52.350;6.684;2024-01-15T07:05:59;3.61;13.59
19340;HTU21D;9804;52.350;6.684;2024-01-15T07:08:25;3.59;6.68
19340;HTU21D;9804;52.350;6.684;2024-01-15T07:10:50;3.63;-6.00
19340;HTU21D;9804;52.350;6.684;2024-01-15T07:13:15;3.67;-6.00
19340;HTU21D;9804;52.350;6.684;2024-01-15T07:15:41;3.72;-6.00
19340;HTU21D;9804;52.350;6.684;2024-01-15T07:18:06;3.62;-6.00
19340;HTU21D;9804;52.350;6.684;2024-01-15T07:20:32;3.67;-6.00
19340;HTU21D;9804;52.350;6.684;2024-01-15T07:22:57;3.74;-6.00
19340;HTU21D;9804;52.350;6.684;2024-01-15T07:25:23;3.65;-6.00
19340;HTU21D;9804;52.350;6.684;2024-01-15T07:27:48;3.58;-6.00
19340;HTU21D;9804;52.350;6.684;2024-01-15T07:30:14;3.50;-6.00
19340;HTU21D;9804;52.350;6.684;2024-01-15T07:32:39;3.54;-6.00
19340;HTU21D;9804;52.350;6.684;2024-01-15T07:35:06;3.62;-6.00
19340;HTU21D;9804;52.350;6.684;2024-01-15T07:37:31;3.54;-6.00
19340;HTU21D;9804;52.350;6.684;2024-01-15T07:39:57;3.59;-6.00
19340;HTU21D;9804;52.350;6.684;2024-01-15T07:42:22;3.53;-6.00
19340;HTU21D;9804;52.350;6.684;2024-01-15T07:44:47;3.53;-6.00
19340;HTU21D;9804;52.350;6.684;2024-01-15T07:47:13;3.41;-6.00
19340;HTU21D;9804;52.350;6.684;2024-01-15T07:49:39;3.40;-6.00
19340;HTU21D;9804;52.350;6.684;2024-01-15T07:52:04;3.33;-6.00
19340;HTU21D;9804;52.350;6.684;2024-01-15T07:54:31;3.40;10.48
19340;HTU21D;9804;52.350;6.684;2024-01-15T07:56:58;3.50;-4.10
19340;HTU21D;9804;52.350;6.684;2024-01-15T07:59:24;3.50;-6.00
19340;HTU21D;9804;52.350;6.684;2024-01-15T08:01:51;3.45;-6.00
19340;HTU21D;9804;52.350;6.684;2024-01-15T08:04:16;3.45;-6.00
19340;HTU21D;9804;52.350;6.684;2024-01-15T08:06:42;3.31;-6.00
19340;HTU21D;9804;52.350;6.684;2024-01-15T08:09:07;3.40;-6.00
19340;HTU21D;9804;52.350;6.684;2024-01-15T08:11:34;3.36;-6.00
19340;HTU21D;9804;52.350;6.684;2024-01-15T08:13:59;3.42;-6.00
19340;HTU21D;9804;52.350;6.684;2024-01-15T08:16:25;3.40;-6.00
19340;HTU21D;9804;52.350;6.684;2024-01-15T08:18:50;3.52;-6.00
19340;HTU21D;9804;52.350;6.684;2024-01-15T08:21:16;3.43;-6.00
19340;HTU21D;9804;52.350;6.684;2024-01-15T08:23:41;3.54;-6.00
19340;HTU21D;9804;52.350;6.684;2024-01-15T08:26:07;3.46;-6.00
19340;HTU21D;9804;52.350;6.684;2024-01-15T08:28:34;3.45;-6.00
19340;HTU21D;9804;52.350;6.684;2024-01-15T08:30:59;3.41;-6.00
19340;HTU21D;9804;52.350;6.684;2024-01-15T08:33:25;3.32;-6.00
19340;HTU21D;9804;52.350;6.684;2024-01-15T08:35:50;3.35;-6.00
19340;HTU21D;9804;52.350;6.684;2024-01-15T08:38:15;3.47;-6.00
19340;HTU21D;9804;52.350;6.684;2024-01-15T08:40:41;3.45;-6.00
19340;HTU21D;9804;52.350;6.684;2024-01-15T08:43:06;3.68;-6.00
19340;HTU21D;9804;52.350;6.684;2024-01-15T08:45:32;3.57;-6.00
19340;HTU21D;9804;52.350;6.684;2024-01-15T08:47:58;3.71;-6.00
19340;HTU21D;9804;52.350;6.684;2024-01-15T08:50:23;3.72;-6.00
19340;HTU21D;9804;52.350;6.684;2024-01-15T08:52:49;3.77;-6.00
19340;HTU21D;9804;52.350;6.684;2024-01-15T08:55:14;3.84;-6.00
19340;HTU21D;9804;52.350;6.684;2024-01-15T08:57:40;3.67;-6.00
19340;HTU21D;9804;52.350;6.684;2024-01-15T09:00:06;3.84;-6.00
19340;HTU21D;9804;52.350;6.684;2024-01-15T09:02:34;3.84;-6.00
19340;HTU21D;9804;52.350;6.684;2024-01-15T09:05:00;3.99;-6.00
19340;HTU21D;9804;52.350;6.684;2024-01-15T09:07:25;4.16;-6.00
19340;HTU21D;9804;52.350;6.684;2024-01-15T09:09:52;3.99;-6.00
19340;HTU21D;9804;52.350;6.684;2024-01-15T09:12:18;4.00;-6.00
19340;HTU21D;9804;52.350;6.684;2024-01-15T09:14:46;4.08;-6.00
19340;HTU21D;9804;52.350;6.684;2024-01-15T09:17:12;4.09;-6.00
19340;HTU21D;9804;52.350;6.684;2024-01-15T09:19:37;4.14;-6.00
19340;HTU21D;9804;52.350;6.684;2024-01-15T09:22:04;4.16;-6.00
19340;HTU21D;9804;52.350;6.684;2024-01-15T09:24:29;4.19;-6.00
19340;HTU21D;9804;52.350;6.684;2024-01-15T09:26:55;4.09;-6.00
19340;HTU21D;9804;52.350;6.684;2024-01-15T09:29:20;4.05;-6.00
19340;HTU21D;9804;52.350;6.684;2024-01-15T09:31:46;4.19;-6.00
19340;HTU21D;9804;52.350;6.684;2024-01-15T09:34:11;4.08;-6.00
19340;HTU21D;9804;52.350;6.684;2024-01-15T09:36:40;3.93;-6.00
19340;HTU21D;9804;52.350;6.684;2024-01-15T09:39:08;3.92;-6.00
19340;HTU21D;9804;52.350;6.684;2024-01-15T09:41:37;3.77;-6.00
19340;HTU21D;9804;52.350;6.684;2024-01-15T09:44:03;3.79;-6.00
19340;HTU21D;9804;52.350;6.684;2024-01-15T09:46:31;4.06;-6.00
19340;HTU21D;9804;52.350;6.684;2024-01-15T09:48:57;4.06;-6.00
19340;HTU21D;9804;52.350;6.684;2024-01-15T09:51:24;4.13;-6.00
19340;HTU21D;9804;52.350;6.684;2024-01-15T09:53:50;4.35;-6.00
19340;HTU21D;9804;52.350;6.684;2024-01-15T09:56:15;4.76;-6.00
19340;HTU21D;9804;52.350;6.684;2024-01-15T09:58:41;4.44;-6.00
19340;HTU21D;9804;52.350;6.684;2024-01-15T10:01:08;4.48;-6.00
19340;HTU21D;9804;52.350;6.684;2024-01-15T10:03:33;4.19;-6.00
19340;HTU21D;9804;52.350;6.684;2024-01-15T10:05:59;4.04;-6.00
19340;HTU21D;9804;52.350;6.684;2024-01-15T10:08:25;4.02;-6.00
19340;HTU21D;9804;52.350;6.684;2024-01-15T10:10:50;3.97;-6.00
19340;HTU21D;9804;52.350;6.684;2024-01-15T10:13:16;4.20;-6.00
19340;HTU21D;9804;52.350;6.684;2024-01-15T10:15:45;4.20;-6.00
19340;HTU21D;9804;52.350;6.684;2024-01-15T10:18:12;4.30;-6.00
19340;HTU21D;9804;52.350;6.684;2024-01-15T10:20:37;4.28;-6.00
19340;HTU21D;9804;52.350;6.684;2024-01-15T10:23:03;4.31;-6.00
19340;HTU21D;9804;52.350;6.684;2024-01-15T10:25:29;4.38;-6.00
19340;HTU21D;9804;52.350;6.684;2024-01-15T10:28:05;4.39;-6.00
19340;HTU21D;9804;52.350;6.684;2024-01-15T10:30:32;4.48;-6.00
19340;HTU21D;9804;52.350;6.684;2024-01-15T10:33:02;4.45;-6.00
19340;HTU21D;9804;52.350;6.684;2024-01-15T10:35:33;4.44;-6.00
19340;HTU21D;9804;52.350;6.684;2024-01-15T10:38:00;4.60;-6.00
19340;HTU21D;9804;52.350;6.684;2024-01-15T10:40:26;4.43;-6.00
19340;HTU21D;9804;52.350;6.684;2024-01-15T10:42:51;4.80;-6.00
19340;HTU21D;9804;52.350;6.684;2024-01-15T10:45:17;4.72;-6.00
19340;HTU21D;9804;52.350;6.684;2024-01-15T10:47:43;4.77;-6.00
19340;HTU21D;9804;52.350;6.684;2024-01-15T10:50:09;4.52;-6.00
19340;HTU21D;9804;52.350;6.684;2024-01-15T10:52:39;4.68;-6.00
19340;HTU21D;9804;52.350;6.684;2024-01-15T10:55:07;4.76;-6.00
19340;HTU21D;9804;52.350;6.684;2024-01-15T10:57:38;4.34;-6.00
19340;HTU21D;9804;52.350;6.684;2024-01-15T11:00:04;4.33;-6.00
19340;HTU21D;9804;52.350;6.684;2024-01-15T11:02:35;4.10;-6.00
19340;HTU21D;9804;52.350;6.684;2024-01-15T11:05:01;4.64;-6.00
19340;HTU21D;9804;52.350;6.684;2024-01-15T11:07:27;4.72;-6.00
19340;HTU21D;9804;52.350;6.684;2024-01-15T11:09:52;5.16;-6.00
19340;HTU21D;9804;52.350;6.684;2024-01-15T11:12:18;5.00;-6.00
19340;HTU21D;9804;52.350;6.684;2024-01-15T11:14:49;5.00;-6.00
19340;HTU21D;9804;52.350;6.684;2024-01-15T11:17:15;4.94;-6.00
19340;HTU21D;9804;52.350;6.684;2024-01-15T11:22:09;4.74;-6.00
19340;HTU21D;9804;52.350;6.684;2024-01-15T11:24:40;4.56;-6.00
19340;HTU21D;9804;52.350;6.684;2024-01-15T11:27:08;4.63;-6.00
19340;HTU21D;9804;52.350;6.684;2024-01-15T11:29:35;4.69;-6.00
19340;HTU21D;9804;52.350;6.684;2024-01-15T11:32:05;4.69;-6.00
19340;HTU21D;9804;52.350;6.684;2024-01-15T11:37:14;4.69;-6.00
19340;HTU21D;9804;52.350;6.684;2024-01-15T11:39:43;4.51;-6.00
19340;HTU21D;9804;52.350;6.684;2024-01-15T11:42:10;4.33;-6.00
19340;HTU21D;9804;52.350;6.684;2024-01-15T11:44:40;4.27;-6.00
19340;HTU21D;9804;52.350;6.684;2024-01-15T11:47:09;4.48;-6.00
19340;HTU21D;9804;52.350;6.684;2024-01-15T11:50:07;4.63;-6.00
19340;HTU21D;9804;52.350;6.684;2024-01-15T11:52:35;4.68;-6.00
19340;HTU21D;9804;52.350;6.684;2024-01-15T11:55:22;4.83;-6.00
19340;HTU21D;9804;52.350;6.684;2024-01-15T11:57:52;4.74;-6.00
19340;HTU21D;9804;52.350;6.684;2024-01-15T12:00:18;4.78;-6.00
19340;HTU21D;9804;52.350;6.684;2024-01-15T12:02:45;4.94;-6.00
19340;HTU21D;9804;52.350;6.684;2024-01-15T12:05:13;4.53;-6.00
19340;HTU21D;9804;52.350;6.684;2024-01-15T12:07:39;4.36;-6.00
19340;HTU21D;9804;52.350;6.684;2024-01-15T12:10:15;4.47;-6.00
19340;HTU21D;9804;52.350;6.684;2024-01-15T12:15:19;4.68;-6.00
19340;HTU21D;9804;52.350;6.684;2024-01-15T12:17:45;4.58;-6.00
19340;HTU21D;9804;52.350;6.684;2024-01-15T12:20:11;4.60;-6.00
19340;HTU21D;9804;52.350;6.684;2024-01-15T12:22:37;4.46;-6.00
19340;HTU21D;9804;52.350;6.684;2024-01-15T12:25:03;4.53;-6.00
19340;HTU21D;9804;52.350;6.684;2024-01-15T12:27:29;4.46;-6.00
19340;HTU21D;9804;52.350;6.684;2024-01-15T12:29:54;4.54;-6.00
19340;HTU21D;9804;52.350;6.684;2024-01-15T12:32:20;4.66;-6.00
19340;HTU21D;9804;52.350;6.684;2024-01-15T12:34:49;4.62;-6.00
19340;HTU21D;9804;52.350;6.684;2024-01-15T12:37:15;4.80;-6.00
19340;HTU21D;9804;52.350;6.684;2024-01-15T12:39:43;4.76;-6.00
19340;HTU21D;9804;52.350;6.684;2024-01-15T12:42:09;4.77;-6.00
19340;HTU21D;9804;52.350;6.684;2024-01-15T12:44:35;4.79;-6.00
19340;HTU21D;9804;52.350;6.684;2024-01-15T12:47:04;4.84;-6.00
19340;HTU21D;9804;52.350;6.684;2024-01-15T12:49:29;5.01;-6.00
19340;HTU21D;9804;52.350;6.684;2024-01-15T12:51:57;5.06;-6.00
19340;HTU21D;9804;52.350;6.684;2024-01-15T12:54:23;5.12;-6.00
19340;HTU21D;9804;52.350;6.684;2024-01-15T12:56:49;5.03;-6.00
19340;HTU21D;9804;52.350;6.684;2024-01-15T12:59:15;5.07;-6.00
19340;HTU21D;9804;52.350;6.684;2024-01-15T13:01:40;5.21;-6.00
19340;HTU21D;9804;52.350;6.684;2024-01-15T13:04:07;5.03;-6.00
19340;HTU21D;9804;52.350;6.684;2024-01-15T13:06:37;5.07;-6.00
19340;HTU21D;9804;52.350;6.684;2024-01-15T13:09:03;5.21;-6.00
19340;HTU21D;9804;52.350;6.684;2024-01-15T13:11:32;4.95;-6.00
19340;HTU21D;9804;52.350;6.684;2024-01-15T13:13:58;5.08;-6.00
19340;HTU21D;9804;52.350;6.684;2024-01-15T13:16:23;4.83;-6.00
19340;HTU21D;9804;52.350;6.684;2024-01-15T13:18:52;4.72;-6.00
19340;HTU21D;9804;52.350;6.684;2024-01-15T13:21:17;4.56;-6.00
19340;HTU21D;9804;52.350;6.684;2024-01-15T13:23:43;4.29;-6.00
19340;HTU21D;9804;52.350;6.684;2024-01-15T13:26:08;4.62;-6.00
19340;HTU21D;9804;52.350;6.684;2024-01-15T13:28:33;4.29;-6.00
19340;HTU21D;9804;52.350;6.684;2024-01-15T13:30:59;4.20;-6.00
19340;HTU21D;9804;52.350;6.684;2024-01-15T13:33:25;4.18;-6.00
19340;HTU21D;9804;52.350;6.684;2024-01-15T13:35:50;4.39;-6.00
19340;HTU21D;9804;52.350;6.684;2024-01-15T13:38:16;4.35;-6.00
19340;HTU21D;9804;52.350;6.684;2024-01-15T13:40:41;4.07;-6.00
19340;HTU21D;9804;52.350;6.684;2024-01-15T13:43:07;4.10;-6.00
19340;HTU21D;9804;52.350;6.684;2024-01-15T13:45:36;4.28;-6.00
19340;HTU21D;9804;52.350;6.684;2024-01-15T13:48:02;4.19;-6.00
19340;HTU21D;9804;52.350;6.684;2024-01-15T13:50:31;4.34;-6.00
19340;HTU21D;9804;52.350;6.684;2024-01-15T13:52:56;4.15;-6.00
19340;HTU21D;9804;52.350;6.684;2024-01-15T13:55:22;4.14;-6.00
19340;HTU21D;9804;52.350;6.684;2024-01-15T13:57:48;4.33;-6.00
19340;HTU21D;9804;52.350;6.684;2024-01-15T14:00:13;4.19;-6.00
19340;HTU21D;9804;52.350;6.684;2024-01-15T14:02:43;4.02;-6.00
19340;HTU21D;9804;52.350;6.684;2024-01-15T14:05:09;4.19;-6.00
19340;HTU21D;9804;52.350;6.684;2024-01-15T14:07:34;4.22;-6.00
19340;HTU21D;9804;52.350;6.684;2024-01-15T14:10:00;4.19;-6.00
19340;HTU21D;9804;52.350;6.684;2024-01-15T14:12:25;4.06;-6.00
19340;HTU21D;9804;52.350;6.684;2024-01-15T14:14:51;4.12;-6.00
19340;HTU21D;9804;52.350;6.684;2024-01-15T14:17:17;4.16;-6.00
19340;HTU21D;9804;52.350;6.684;2024-01-15T14:19:43;4.28;-6.00
19340;HTU21D;9804;52.350;6.684;2024-01-15T14:22:08;4.17;-6.00
19340;HTU21D;9804;52.350;6.684;2024-01-15T14:24:34;4.05;-6.00
19340;HTU21D;9804;52.350;6.684;2024-01-15T14:26:59;4.16;-6.00
19340;HTU21D;9804;52.350;6.684;2024-01-15T14:29:25;4.38;-6.00
19340;HTU21D;9804;52.350;6.684;2024-01-15T14:31:52;4.41;-6.00
19340;HTU21D;9804;52.350;6.684;2024-01-15T14:34:17;4.44;-6.00
19340;HTU21D;9804;52.350;6.684;2024-01-15T14:36:43;4.42;-6.00
19340;HTU21D;9804;52.350;6.684;2024-01-15T14:39:09;4.54;-6.00
19340;HTU21D;9804;52.350;6.684;2024-01-15T14:41:37;4.64;-6.00
19340;HTU21D;9804;52.350;6.684;2024-01-15T14:44:02;4.62;-6.00
19340;HTU21D;9804;52.350;6.684;2024-01-15T14:46:28;4.63;-6.00
19340;HTU21D;9804;52.350;6.684;2024-01-15T14:48:55;4.61;-6.00
19340;HTU21D;9804;52.350;6.684;2024-01-15T14:51:20;4.62;-6.00
19340;HTU21D;9804;52.350;6.684;2024-01-15T14:53:46;4.79;-6.00
19340;HTU21D;9804;52.350;6.684;2024-01-15T14:56:11;4.51;-6.00
19340;HTU21D;9804;52.350;6.684;2024-01-15T14:58:36;4.52;-6.00
19340;HTU21D;9804;52.350;6.684;2024-01-15T15:01:02;4.50;-6.00
19340;HTU21D;9804;52.350;6.684;2024-01-15T15:03:28;4.72;-6.00
19340;HTU21D;9804;52.350;6.684;2024-01-15T15:05:54;4.60;-6.00
19340;HTU21D;9804;52.350;6.684;2024-01-15T15:08:19;4.51;-6.00
19340;HTU21D;9804;52.350;6.684;2024-01-15T15:10:45;4.64;-6.00
19340;HTU21D;9804;52.350;6.684;2024-01-15T15:13:10;4.68;-6.00
19340;HTU21D;9804;52.350;6.684;2024-01-15T15:15:36;4.45;-6.00
19340;HTU21D;9804;52.350;6.684;2024-01-15T15:18:01;4.51;-6.00
19340;HTU21D;9804;52.350;6.684;2024-01-15T15:20:27;4.37;-6.00
19340;HTU21D;9804;52.350;6.684;2024-01-15T15:22:52;4.39;-6.00
19340;HTU21D;9804;52.350;6.684;2024-01-15T15:25:21;4.38;-6.00
19340;HTU21D;9804;52.350;6.684;2024-01-15T15:27:47;4.30;-6.00
19340;HTU21D;9804;52.350;6.684;2024-01-15T15:30:13;4.26;-6.00
19340;HTU21D;9804;52.350;6.684;2024-01-15T15:32:38;4.28;-6.00
19340;HTU21D;9804;52.350;6.684;2024-01-15T15:35:04;4.22;-6.00
19340;HTU21D;9804;52.350;6.684;2024-01-15T15:37:29;4.19;-6.00
19340;HTU21D;9804;52.350;6.684;2024-01-15T15:39:55;4.04;-6.00
19340;HTU21D;9804;52.350;6.684;2024-01-15T15:42:21;4.10;-6.00
19340;HTU21D;9804;52.350;6.684;2024-01-15T15:44:49;4.32;-6.00
19340;HTU21D;9804;52.350;6.684;2024-01-15T15:47:16;4.31;-6.00